Time;durP1;ratioP1;P1;durP2;ratioP2;P2;SDS_P1;SDS_P2;PMS_P1;PMS_P2;Temp;Humidity;BMP_temperature;BMP_pressure;BME280_temperature;BME280_humidity;BME280_pressure;Samples;Min_cycle;Max_cycle;Signal;HPM_P1;HPM_P2
2020/03/05 00:02:25;;;;;;;8.6;5;;;;;;;6.05;75.56641;994.8695;;;;
2020/03/05 00:04:42;;;;;;;8;4.9;;;;;;;5.96;74.69922;994.7754;;;;
2020/03/05 00:07:07;;;;;;;9.6;4.7;;;;;;;5.98;74.0459;994.78;;;;
2020/03/05 00:09:32;;;;;;;8.2;4.5;;;;;;;5.99;73.71875;994.6972;;;;
2020/03/05 00:11:57;;;;;;;7.6;4.7;;;;;;;6.12;75.05469;994.6876;;;;
2020/03/05 00:14:23;;;;;;;8.2;4.8;;;;;;;6.11;73.70703;994.7023;;;;
2020/03/05 00:16:48;;;;;;;7.4;4.6;;;;;;;6.25;74.4209;994.665;;;;
2020/03/05 00:19:13;;;;;;;7.5;4.8;;;;;;;6.3;74.67871;994.6955;;;;
2020/03/05 00:21:38;;;;;;;9.3;4.9;;;;;;;6.42;74.75684;994.6644;;;;
2020/03/05 00:24:03;;;;;;;8.6;4.8;;;;;;;6.38;76.27051;994.6714;;;;
2020/03/05 00:26:28;;;;;;;6.7;4.5;;;;;;;6.39;75.64648;994.6746;;;;
2020/03/05 00:28:53;;;;;;;8;4.7;;;;;;;6.37;76.73145;994.5839;;;;
2020/03/05 00:31:18;;;;;;;7.3;4.7;;;;;;;6.25;76.07813;994.5831;;;;
2020/03/05 00:33:44;;;;;;;9;5.2;;;;;;;5.9;77.125;994.4519;;;;
2020/03/05 00:36:09;;;;;;;8.2;4.8;;;;;;;6.27;76.14746;994.3734;;;;
2020/03/05 00:38:34;;;;;;;8.1;4.6;;;;;;;6.5;77.05078;994.3782;;;;
2020/03/05 00:40:59;;;;;;;9.9;5.7;;;;;;;6.47;76.75098;994.4005;;;;
2020/03/05 00:43:24;;;;;;;6.9;4.9;;;;;;;6.18;76.07422;994.3644;;;;
2020/03/05 00:45:49;;;;;;;7.6;4.5;;;;;;;6.3;75.34863;994.3482;;;;
2020/03/05 00:48:14;;;;;;;8;4.6;;;;;;;5.99;75.4502;994.3507;;;;
2020/03/05 00:50:39;;;;;;;7.6;4.6;;;;;;;6.25;74.84082;994.2902;;;;
2020/03/05 01:10:13;;;;;;;6.6;4;;;;;;;6.44;75.70117;993.8622;;;;
2020/03/05 01:12:27;;;;;;;6.7;4.2;;;;;;;6.41;75.93652;993.8334;;;;
2020/03/05 01:14:52;;;;;;;6;4;;;;;;;6.36;75.37109;993.7578;;;;
2020/03/05 01:17:16;;;;;;;7.4;4.3;;;;;;;6.5;76.50684;993.7206;;;;
2020/03/05 01:19:41;;;;;;;6.2;4.3;;;;;;;6.67;76.03809;993.6549;;;;
2020/03/05 01:22:06;;;;;;;7.5;4.3;;;;;;;6.6;75.58301;993.5984;;;;
2020/03/05 01:24:31;;;;;;;6.9;4.2;;;;;;;6.49;76.23242;993.564;;;;
2020/03/05 01:26:56;;;;;;;8.8;4.7;;;;;;;6.59;75.81934;993.5059;;;;
2020/03/05 01:29:22;;;;;;;7.6;4.7;;;;;;;6.5;76.01758;993.5115;;;;
2020/03/05 01:31:47;;;;;;;6.5;4.1;;;;;;;6.48;77.27246;993.493;;;;
2020/03/05 01:34:12;;;;;;;7.5;4.4;;;;;;;6.41;78.06641;993.5153;;;;
2020/03/05 01:36:37;;;;;;;7;4.2;;;;;;;6.27;78.57422;993.4736;;;;
2020/03/05 01:39:02;;;;;;;7.6;4.5;;;;;;;6.22;77.39551;993.408;;;;
2020/03/05 01:41:27;;;;;;;6.9;4.5;;;;;;;5.99;77.97852;993.4016;;;;
2020/03/05 01:43:52;;;;;;;9.3;4.3;;;;;;;6.05;77.24316;993.3014;;;;
2020/03/05 01:46:18;;;;;;;7.9;4.4;;;;;;;6.35;74.63086;993.1755;;;;
2020/03/05 01:48:43;;;;;;;8.5;4.9;;;;;;;6.41;73.54199;993.1038;;;;
2020/03/05 01:51:08;;;;;;;9.2;4.3;;;;;;;6.36;73.5918;993.0483;;;;
2020/03/05 01:53:33;;;;;;;7.4;4.4;;;;;;;6.45;74.24023;992.9602;;;;
2020/03/05 01:55:58;;;;;;;9.8;4.9;;;;;;;6.51;74.4082;992.9122;;;;
2020/03/05 01:58:23;;;;;;;7.5;4.4;;;;;;;6.56;74.66699;992.9199;;;;
2020/03/05 02:00:48;;;;;;;7.8;4.3;;;;;;;6.35;75.50293;992.9031;;;;
2020/03/05 02:03:13;;;;;;;8.6;4.4;;;;;;;6.37;74.82715;992.9025;;;;
2020/03/05 02:05:38;;;;;;;7.9;4;;;;;;;6.39;74.52539;992.8395;;;;
2020/03/05 02:08:04;;;;;;;7.4;4.3;;;;;;;6.44;74.3291;992.7578;;;;
2020/03/05 02:10:29;;;;;;;8;4.3;;;;;;;6.33;74.85352;992.6691;;;;
2020/03/05 02:12:54;;;;;;;6.6;4.2;;;;;;;6.27;75.28711;992.6238;;;;
2020/03/05 02:15:19;;;;;;;8;4.3;;;;;;;6.32;75.375;992.698;;;;
2020/03/05 02:17:44;;;;;;;6.1;4;;;;;;;6.11;76.16504;992.6666;;;;
2020/03/05 02:20:09;;;;;;;7;3.9;;;;;;;6.24;76.62988;992.6091;;;;
2020/03/05 02:22:34;;;;;;;7.6;4.2;;;;;;;6.32;76.63281;992.5989;;;;
2020/03/05 02:24:59;;;;;;;8.7;4.5;;;;;;;6.4;76.46484;992.589;;;;
2020/03/05 02:27:25;;;;;;;7.5;4.2;;;;;;;6.63;75.03125;992.4885;;;;
2020/03/05 02:29:50;;;;;;;7.6;4.4;;;;;;;6.69;75.28125;992.449;;;;
2020/03/05 02:32:15;;;;;;;7.7;4.3;;;;;;;6.86;75.32031;992.4105;;;;
2020/03/05 02:34:40;;;;;;;5.9;4;;;;;;;6.85;75.60449;992.431;;;;
2020/03/05 02:37:05;;;;;;;7.1;4;;;;;;;6.54;76.28613;992.3869;;;;
2020/03/05 02:39:30;;;;;;;9;4.2;;;;;;;6.54;77.01172;992.3828;;;;
2020/03/05 02:41:55;;;;;;;6.5;3.8;;;;;;;6.57;77.99219;992.3541;;;;
2020/03/05 02:44:21;;;;;;;7.3;4.2;;;;;;;6.61;76.11914;992.3784;;;;
2020/03/05 02:46:46;;;;;;;8.5;4;;;;;;;6.51;77.40234;992.3242;;;;
2020/03/05 02:49:11;;;;;;;7.3;4.4;;;;;;;6.86;76.87598;992.3644;;;;
2020/03/05 02:51:36;;;;;;;8.1;4;;;;;;;6.99;76.72949;992.3505;;;;
2020/03/05 02:54:01;;;;;;;7.6;4;;;;;;;7;77.3457;992.2924;;;;
2020/03/05 02:56:27;;;;;;;8.1;4.5;;;;;;;7.11;76.38867;992.2701;;;;
2020/03/05 02:58:52;;;;;;;6.8;4;;;;;;;6.87;76.05078;992.2418;;;;
2020/03/05 03:01:17;;;;;;;6.4;3.9;;;;;;;6.85;77.73828;992.2101;;;;
2020/03/05 03:03:42;;;;;;;6.1;3.4;;;;;;;6.8;78.03613;992.1653;;;;
2020/03/05 03:06:07;;;;;;;7.1;4.2;;;;;;;6.87;77.36719;992.1191;;;;
2020/03/05 03:08:32;;;;;;;8;4.2;;;;;;;6.59;77.90625;992.0759;;;;
2020/03/05 03:10:57;;;;;;;6.7;4.1;;;;;;;6.42;78.8623;992.0506;;;;
2020/03/05 03:13:22;;;;;;;6.5;4.4;;;;;;;6.65;77.19043;992.0715;;;;
2020/03/05 03:15:47;;;;;;;6;3.9;;;;;;;6.88;76.86914;992.0226;;;;
2020/03/05 03:18:12;;;;;;;7.2;4;;;;;;;6.92;77.25;991.963;;;;
2020/03/05 03:20:38;;;;;;;7.1;4;;;;;;;6.84;75.83008;991.9846;;;;
2020/03/05 03:23:03;;;;;;;7.4;4.2;;;;;;;6.85;75.78613;992.0128;;;;
2020/03/05 03:25:28;;;;;;;6.4;3.8;;;;;;;6.93;75.62988;991.9659;;;;
2020/03/05 03:27:53;;;;;;;6.6;4.2;;;;;;;6.93;75.92383;991.9269;;;;
2020/03/05 03:30:18;;;;;;;6.1;4;;;;;;;6.93;75.42578;991.8248;;;;
2020/03/05 03:32:43;;;;;;;7.8;4.1;;;;;;;7.01;75.12207;991.7486;;;;
2020/03/05 03:35:09;;;;;;;7.5;4.3;;;;;;;6.96;75.77148;991.7354;;;;
2020/03/05 03:37:34;;;;;;;5.8;3.8;;;;;;;6.9;76.23828;991.7134;;;;
2020/03/05 03:39:59;;;;;;;9.7;4.1;;;;;;;6.7;76.33789;991.6711;;;;
2020/03/05 03:42:24;;;;;;;7.6;3.8;;;;;;;6.54;76.7168;991.7047;;;;
2020/03/05 03:44:50;;;;;;;7.1;3.7;;;;;;;6.53;77.21484;991.6685;;;;
2020/03/05 03:47:15;;;;;;;5.8;4;;;;;;;6.53;76.88379;991.6627;;;;
2020/03/05 03:49:40;;;;;;;5.6;3.7;;;;;;;6.62;77.1416;991.709;;;;
2020/03/05 03:52:05;;;;;;;7.3;3.6;;;;;;;6.64;75.61133;991.6662;;;;
2020/03/05 03:54:30;;;;;;;6.8;3.5;;;;;;;6.65;75.48828;991.6027;;;;
2020/03/05 03:56:55;;;;;;;6.1;3.5;;;;;;;6.71;75.27246;991.5161;;;;
2020/03/05 03:59:20;;;;;;;5.6;3.4;;;;;;;6.74;75.18848;991.4964;;;;
2020/03/05 04:02:27;;;;;;;5.2;3.5;;;;;;;6.62;75.54004;991.4893;;;;
2020/03/05 04:04:52;;;;;;;5.6;3.7;;;;;;;6.6;75.76465;991.423;;;;
2020/03/05 04:07:18;;;;;;;7.7;3.9;;;;;;;6.63;75.68945;991.4103;;;;
2020/03/05 04:09:43;;;;;;;7.2;4;;;;;;;6.73;75.48047;991.3334;;;;
2020/03/05 04:12:08;;;;;;;6.8;4.1;;;;;;;6.68;75.32324;991.2573;;;;
2020/03/05 04:14:33;;;;;;;8.1;3.9;;;;;;;6.91;75.22852;991.1872;;;;
2020/03/05 04:16:58;;;;;;;7.2;3.8;;;;;;;6.85;74.99121;991.1824;;;;
2020/03/05 04:19:23;;;;;;;7.5;3.9;;;;;;;6.91;74.80762;991.0762;;;;
2020/03/05 04:21:48;;;;;;;7.4;3.4;;;;;;;6.81;74.73438;991.0505;;;;
2020/03/05 04:24:13;;;;;;;6.3;3.4;;;;;;;6.88;74.73535;991.0016;;;;
2020/03/05 04:26:38;;;;;;;5.1;3.2;;;;;;;6.92;74.51465;990.9567;;;;
2020/03/05 04:29:03;;;;;;;5.9;3.2;;;;;;;6.79;74.51563;990.9281;;;;
2020/03/05 04:31:29;;;;;;;5.8;3.2;;;;;;;6.79;74.57227;990.9114;;;;
2020/03/05 04:33:54;;;;;;;6.2;3;;;;;;;6.88;74.74609;990.8896;;;;
2020/03/05 04:36:19;;;;;;;6.4;2.7;;;;;;;7.05;73.7998;990.903;;;;
2020/03/05 04:38:44;;;;;;;5.2;2.6;;;;;;;7.06;73.08594;990.8367;;;;
2020/03/05 04:41:09;;;;;;;4.7;2.7;;;;;;;7.04;73.40039;990.748;;;;
2020/03/05 04:43:34;;;;;;;5;3.1;;;;;;;7.16;73.71582;990.7537;;;;
2020/03/05 04:45:59;;;;;;;6;3;;;;;;;7.12;73.14063;990.6454;;;;
2020/03/05 04:48:24;;;;;;;5.1;2.7;;;;;;;7.06;73.5625;990.6144;;;;
2020/03/05 04:50:49;;;;;;;6.5;2.7;;;;;;;7.06;73.77832;990.5623;;;;
2020/03/05 04:53:15;;;;;;;5.3;2.9;;;;;;;7.29;73.19434;990.5723;;;;
2020/03/05 04:55:40;;;;;;;4.5;2.7;;;;;;;7.32;73.85742;990.5344;;;;
2020/03/05 04:58:05;;;;;;;4.6;2.7;;;;;;;7.19;74.12988;990.563;;;;
2020/03/05 05:00:30;;;;;;;4.6;2.5;;;;;;;7.2;73.32617;990.5317;;;;
2020/03/05 05:02:55;;;;;;;4.7;2.6;;;;;;;7.25;73.26465;990.491;;;;
2020/03/05 05:05:20;;;;;;;5.1;2.4;;;;;;;7.34;72.50879;990.4539;;;;
2020/03/05 05:07:45;;;;;;;5.3;2.4;;;;;;;7.35;72.79297;990.4166;;;;
2020/03/05 05:10:10;;;;;;;3.9;2.4;;;;;;;7.29;73.1582;990.4176;;;;
2020/03/05 05:12:35;;;;;;;4.7;2.2;;;;;;;7.19;72.22168;990.3652;;;;
2020/03/05 05:15:00;;;;;;;3.7;2;;;;;;;7.13;72.22168;990.2916;;;;
2020/03/05 05:17:26;;;;;;;4.9;2.2;;;;;;;7.12;72.2793;990.2397;;;;
2020/03/05 05:19:51;;;;;;;3.7;2;;;;;;;7.07;72.15625;990.1409;;;;
2020/03/05 05:22:16;;;;;;;2.8;1.9;;;;;;;7.13;72.1084;990.1588;;;;
2020/03/05 05:24:41;;;;;;;4.6;2.3;;;;;;;7.11;72.10547;990.1315;;;;
2020/03/05 05:27:06;;;;;;;4.3;2.1;;;;;;;7.11;72.32129;990.1567;;;;
2020/03/05 05:29:31;;;;;;;3.4;1.9;;;;;;;7.19;72.5625;990.1813;;;;
2020/03/05 05:31:56;;;;;;;3.3;2;;;;;;;7.22;71.85254;990.125;;;;
2020/03/05 05:34:21;;;;;;;3;1.8;;;;;;;7.33;71.98438;990.1013;;;;
2020/03/05 05:36:46;;;;;;;4;1.8;;;;;;;7.32;71.5625;990.0388;;;;
2020/03/05 05:39:12;;;;;;;5.2;2.1;;;;;;;7.22;71.82813;989.973;;;;
2020/03/05 05:41:37;;;;;;;3.8;1.9;;;;;;;7.3;71.65039;989.9722;;;;
2020/03/05 05:44:02;;;;;;;4.5;2;;;;;;;7.35;71.36035;989.9338;;;;
2020/03/05 05:46:27;;;;;;;3.6;2.1;;;;;;;7.21;72.04395;989.8052;;;;
2020/03/05 05:48:52;;;;;;;4.4;2;;;;;;;7.16;72.78516;989.7299;;;;
2020/03/05 05:51:17;;;;;;;4.6;1.8;;;;;;;7.49;71.33887;989.6231;;;;
2020/03/05 05:53:42;;;;;;;3.7;2.2;;;;;;;7.52;71.16309;989.5305;;;;
2020/03/05 05:56:08;;;;;;;3.4;1.8;;;;;;;7.6;70.88086;989.5175;;;;
2020/03/05 05:58:33;;;;;;;4;2.2;;;;;;;7.41;71.4082;989.5056;;;;
2020/03/05 06:00:58;;;;;;;5.6;2.3;;;;;;;7.37;71.78613;989.4536;;;;
2020/03/05 06:03:23;;;;;;;3.4;2;;;;;;;7.39;71.93848;989.4626;;;;
2020/03/05 06:05:48;;;;;;;3.5;2;;;;;;;7.42;71.93164;989.4138;;;;
2020/03/05 06:08:13;;;;;;;3.3;2.1;;;;;;;7.48;71.79297;989.3977;;;;
2020/03/05 06:10:38;;;;;;;4.4;2.2;;;;;;;7.4;71.91699;989.366;;;;
2020/03/05 06:13:04;;;;;;;4.4;2.3;;;;;;;7.33;72.5293;989.3342;;;;
2020/03/05 06:15:28;;;;;;;4;2.3;;;;;;;7.39;72.82422;989.3022;;;;
2020/03/05 06:17:54;;;;;;;4.5;2.3;;;;;;;7.34;72.73535;989.2854;;;;
2020/03/05 06:20:19;;;;;;;4;2.2;;;;;;;7.5;72.52441;989.2829;;;;
2020/03/05 06:22:44;;;;;;;4.2;2.3;;;;;;;7.3;72.89844;989.2869;;;;
2020/03/05 06:25:09;;;;;;;3.9;2.4;;;;;;;7.28;73.35156;989.3061;;;;
2020/03/05 06:27:34;;;;;;;4.1;2.5;;;;;;;7.38;73.19824;989.3435;;;;
2020/03/05 06:30:00;;;;;;;4.1;2.4;;;;;;;7.35;73.26172;989.384;;;;
2020/03/05 06:32:25;;;;;;;4.5;2.3;;;;;;;7.43;73.1582;989.4241;;;;
2020/03/05 06:34:50;;;;;;;5.1;2.1;;;;;;;7.4;73.33789;989.3987;;;;
2020/03/05 06:37:15;;;;;;;4.4;2.4;;;;;;;7.48;73.06738;989.4152;;;;
2020/03/05 06:39:40;;;;;;;4.5;2.4;;;;;;;7.45;73.34473;989.3777;;;;
2020/03/05 06:42:05;;;;;;;5.3;2.2;;;;;;;7.36;73.60449;989.3497;;;;
2020/03/05 06:44:30;;;;;;;5.1;2.3;;;;;;;7.44;73.58203;989.3024;;;;
2020/03/05 06:46:55;;;;;;;4.6;2.3;;;;;;;7.43;73.48828;989.34;;;;
2020/03/05 06:49:20;;;;;;;5.9;2.5;;;;;;;7.42;73.71582;989.258;;;;
2020/03/05 06:51:46;;;;;;;6;2.6;;;;;;;7.46;73.46191;989.1531;;;;
2020/03/05 06:54:11;;;;;;;3.9;2.3;;;;;;;7.63;73.48926;989.0993;;;;
2020/03/05 06:56:36;;;;;;;4.9;2.7;;;;;;;7.75;72.81738;989.1189;;;;
2020/03/05 06:59:01;;;;;;;4.7;2.6;;;;;;;7.55;73.73926;989.0656;;;;
2020/03/05 07:01:26;;;;;;;4;2.5;;;;;;;7.66;73.4502;989.0208;;;;
2020/03/05 07:03:51;;;;;;;4.6;2.4;;;;;;;7.78;73.45898;989.0087;;;;
2020/03/05 07:06:16;;;;;;;5.3;2.4;;;;;;;7.74;73.29395;988.8958;;;;
2020/03/05 07:08:42;;;;;;;6.5;2.5;;;;;;;7.77;73.21875;988.856;;;;
2020/03/05 07:11:07;;;;;;;5.2;2.4;;;;;;;7.85;73.4375;988.7665;;;;
2020/03/05 07:13:32;;;;;;;4.8;2.6;;;;;;;7.85;73.57324;988.7059;;;;
2020/03/05 07:15:57;;;;;;;3.8;2.3;;;;;;;8.03;73.25;988.5941;;;;
2020/03/05 07:18:22;;;;;;;4.4;2.4;;;;;;;8.12;73.49512;988.6295;;;;
2020/03/05 07:20:47;;;;;;;5.4;2.8;;;;;;;8.18;72.86816;988.6007;;;;
2020/03/05 07:23:13;;;;;;;4.4;2.6;;;;;;;8.08;73.75;988.558;;;;
2020/03/05 07:25:38;;;;;;;5.3;3.3;;;;;;;8;73.77051;988.6085;;;;
2020/03/05 07:28:03;;;;;;;4.7;2.7;;;;;;;7.74;74.56738;988.5989;;;;
2020/03/05 07:30:28;;;;;;;4.8;3;;;;;;;7.49;75.97852;988.5655;;;;
2020/03/05 07:32:53;;;;;;;5.6;3.1;;;;;;;7.57;76.00488;988.5897;;;;
2020/03/05 07:35:18;;;;;;;5.2;3.1;;;;;;;7.65;76.07422;988.5017;;;;
2020/03/05 07:37:43;;;;;;;4.2;3.1;;;;;;;7.56;76.25293;988.4962;;;;
2020/03/05 07:40:08;;;;;;;5.5;3.2;;;;;;;7.68;76.23926;988.4572;;;;
2020/03/05 07:42:33;;;;;;;4.9;3;;;;;;;7.56;76.46875;988.4635;;;;
2020/03/05 07:44:58;;;;;;;4.4;3.2;;;;;;;7.6;76.49805;988.4391;;;;
2020/03/05 07:47:23;;;;;;;5.4;3;;;;;;;7.56;76.55859;988.3613;;;;
2020/03/05 07:49:49;;;;;;;5.6;3.1;;;;;;;7.59;76.90625;988.2729;;;;
2020/03/05 07:52:14;;;;;;;5.4;3.5;;;;;;;7.71;76.3125;988.1847;;;;
2020/03/05 07:54:39;;;;;;;6.5;3.7;;;;;;;7.72;76.86133;988.092;;;;
2020/03/05 07:57:04;;;;;;;6.1;3.4;;;;;;;7.92;76.30566;988.0412;;;;
2020/03/05 07:59:29;;;;;;;6;3.2;;;;;;;7.9;76.21094;987.9147;;;;
2020/03/05 08:01:54;;;;;;;5.1;3.2;;;;;;;7.74;77.05664;987.7863;;;;
2020/03/05 08:04:19;;;;;;;6.7;3.5;;;;;;;7.75;77.00293;987.5539;;;;
2020/03/05 08:06:44;;;;;;;6.1;3.6;;;;;;;7.77;77.32617;987.4713;;;;
2020/03/05 08:09:09;;;;;;;6.3;3.3;;;;;;;7.9;76.92676;987.4639;;;;
2020/03/05 08:11:35;;;;;;;5.7;3.3;;;;;;;8.19;75.94238;987.4327;;;;
2020/03/05 08:13:59;;;;;;;5.9;3.2;;;;;;;7.91;76.41602;987.3649;;;;
2020/03/05 08:16:24;;;;;;;5;2.9;;;;;;;7.86;76.73828;987.3635;;;;
2020/03/05 08:18:50;;;;;;;4.5;2.9;;;;;;;7.91;76.5752;987.2769;;;;
2020/03/05 08:21:15;;;;;;;5.1;3;;;;;;;8.03;76.33594;987.2072;;;;
2020/03/05 08:23:40;;;;;;;4.5;2.6;;;;;;;8.2;74.99902;987.1311;;;;
2020/03/05 08:26:05;;;;;;;5.3;3;;;;;;;8.06;75.41895;987.124;;;;
2020/03/05 08:28:30;;;;;;;5.5;3;;;;;;;8.16;75.51563;987.0463;;;;
2020/03/05 08:30:55;;;;;;;6;2.8;;;;;;;8.18;75.45215;986.973;;;;
2020/03/05 08:33:20;;;;;;;3.8;2.9;;;;;;;8.22;74.83105;986.9183;;;;
2020/03/05 08:35:45;;;;;;;4.6;3;;;;;;;8.27;74.92188;986.8652;;;;
2020/03/05 08:38:10;;;;;;;5.2;2.9;;;;;;;8.5;74.8125;986.8388;;;;
2020/03/05 08:40:35;;;;;;;3.9;2.7;;;;;;;8.51;74.19922;986.8427;;;;
2020/03/05 08:43:00;;;;;;;6.2;4.2;;;;;;;8.49;74.45801;986.7611;;;;
2020/03/05 08:45:25;;;;;;;3.9;2.6;;;;;;;8.41;74.8877;986.7408;;;;
2020/03/05 08:47:51;;;;;;;4.8;2.9;;;;;;;8.67;73.72559;986.7592;;;;
2020/03/05 08:50:16;;;;;;;3.9;2.9;;;;;;;8.69;73.4209;986.76;;;;
2020/03/05 08:52:41;;;;;;;4.3;2.5;;;;;;;8.64;73.30859;986.6868;;;;
2020/03/05 08:55:06;;;;;;;4.7;2.8;;;;;;;8.69;73.99023;986.6561;;;;
2020/03/05 08:57:31;;;;;;;5.1;2.8;;;;;;;8.6;73.72461;986.5925;;;;
2020/03/05 08:59:56;;;;;;;3.9;2.8;;;;;;;8.72;73.51758;986.4757;;;;
2020/03/05 09:02:21;;;;;;;3.7;2.8;;;;;;;8.89;72.97559;986.519;;;;
2020/03/05 09:04:47;;;;;;;3.4;2.5;;;;;;;8.85;72.83398;986.4783;;;;
2020/03/05 09:07:12;;;;;;;4.1;2.5;;;;;;;8.85;73.45996;986.4517;;;;
2020/03/05 09:09:37;;;;;;;4.2;2.7;;;;;;;9.09;72.50684;986.4164;;;;
2020/03/05 09:12:02;;;;;;;3.8;2.4;;;;;;;9.16;72.31543;986.3555;;;;
2020/03/05 09:14:27;;;;;;;3.3;2.4;;;;;;;9.23;72.28027;986.2797;;;;
2020/03/05 09:16:52;;;;;;;3.5;2.7;;;;;;;9.07;72.58398;986.3188;;;;
2020/03/05 09:19:17;;;;;;;3.9;2.6;;;;;;;8.97;73.37891;986.2145;;;;
2020/03/05 09:21:42;;;;;;;3.3;2.5;;;;;;;8.93;73.73633;986.202;;;;
2020/03/05 09:24:08;;;;;;;4;2.5;;;;;;;9.01;73.56738;986.2155;;;;
2020/03/05 09:26:33;;;;;;;2.8;2.3;;;;;;;9.02;73.46484;986.2083;;;;
2020/03/05 09:28:58;;;;;;;3.3;2.2;;;;;;;9.1;73.2041;986.1608;;;;
2020/03/05 09:31:23;;;;;;;3;2.3;;;;;;;9.25;73.02539;986.1025;;;;
2020/03/05 09:33:48;;;;;;;2.9;2.3;;;;;;;9.25;72.6709;986.0446;;;;
2020/03/05 09:36:13;;;;;;;4;2.2;;;;;;;9.35;72.71094;986.0425;;;;
2020/03/05 09:38:38;;;;;;;3.2;2.1;;;;;;;9.47;72.2627;986.0477;;;;
2020/03/05 09:41:04;;;;;;;2.8;2.1;;;;;;;9.43;72.53223;986.0587;;;;
2020/03/05 09:43:29;;;;;;;3.6;2.2;;;;;;;9.35;73.1123;986.0236;;;;
2020/03/05 09:45:54;;;;;;;4.1;2.2;;;;;;;9.3;73.31934;985.9545;;;;
2020/03/05 09:48:19;;;;;;;3.3;2;;;;;;;9.23;74.03906;985.8945;;;;
2020/03/05 09:50:44;;;;;;;3.8;2.2;;;;;;;9.24;74.90723;985.8992;;;;
2020/03/05 09:53:09;;;;;;;3;2.4;;;;;;;9.24;75.48926;985.8098;;;;
2020/03/05 09:55:34;;;;;;;3.8;2.4;;;;;;;9.54;75.18652;985.6685;;;;
2020/03/05 09:58:00;;;;;;;2.6;2.3;;;;;;;9.49;74.87109;985.6054;;;;
2020/03/05 10:00:25;;;;;;;3.8;2.5;;;;;;;9.42;76.14844;985.6133;;;;
2020/03/05 10:02:50;;;;;;;5.9;2.8;;;;;;;9.48;76.65039;985.6265;;;;
2020/03/05 10:05:15;;;;;;;4.4;2.7;;;;;;;9.49;76.6748;985.5699;;;;
2020/03/05 10:07:40;;;;;;;3.6;2.5;;;;;;;9.41;77.41406;985.545;;;;
2020/03/05 10:10:05;;;;;;;2.8;2.2;;;;;;;9.59;76.45313;985.4601;;;;
2020/03/05 10:12:30;;;;;;;3.4;2.2;;;;;;;9.49;77.41699;985.383;;;;
2020/03/05 10:14:56;;;;;;;2.9;2.2;;;;;;;9.43;78.16113;985.4174;;;;
2020/03/05 10:17:21;;;;;;;3.5;2.3;;;;;;;9.45;78.73438;985.4133;;;;
2020/03/05 10:19:46;;;;;;;4.7;2.4;;;;;;;9.46;78.82813;985.2775;;;;
2020/03/05 10:22:11;;;;;;;3.4;2.4;;;;;;;9.44;79.5332;985.1728;;;;
2020/03/05 10:24:36;;;;;;;3.7;2.5;;;;;;;9.32;80.29785;985.0778;;;;
2020/03/05 10:27:02;;;;;;;4.2;2.5;;;;;;;9.24;80.81934;985.0876;;;;
2020/03/05 10:29:27;;;;;;;3.4;2.8;;;;;;;8.98;82.45801;985.0212;;;;
2020/03/05 10:31:52;;;;;;;4.9;2.9;;;;;;;8.98;83.07617;985.0225;;;;
2020/03/05 10:34:17;;;;;;;4.4;2.7;;;;;;;9;83.85352;985.0396;;;;
2020/03/05 10:36:42;;;;;;;4.6;2.9;;;;;;;9.05;84.22852;984.9306;;;;
2020/03/05 10:39:07;;;;;;;4.2;2.8;;;;;;;9.15;84.48828;984.8274;;;;
2020/03/05 10:41:32;;;;;;;3.5;2.7;;;;;;;9.16;83.98926;984.7975;;;;
2020/03/05 10:43:58;;;;;;;8;6.5;;;;;;;9.18;84.40234;984.777;;;;
2020/03/05 10:46:23;;;;;;;3.8;2.6;;;;;;;9.07;85.01953;984.7458;;;;
2020/03/05 10:48:48;;;;;;;3;2.5;;;;;;;9.22;84.23926;984.6834;;;;
2020/03/05 10:51:13;;;;;;;3.1;2.6;;;;;;;9.36;83.9248;984.5623;;;;
2020/03/05 10:53:39;;;;;;;3.5;2.5;;;;;;;9.23;84.45996;984.5178;;;;
2020/03/05 10:56:04;;;;;;;3.2;2.7;;;;;;;9.16;84.99219;984.4059;;;;
2020/03/05 10:58:29;;;;;;;2.9;2.4;;;;;;;9.14;85.39941;984.2773;;;;
2020/03/05 11:00:54;;;;;;;2.5;2.3;;;;;;;;;;;;;
2020/03/05 11:03:19;;;;;;;2.8;2.4;;;;;;;;;;;;;
2020/03/05 11:05:45;;;;;;;3.3;3;;;;;;;;;;;;;
2020/03/05 11:08:10;;;;;;;2.3;2;;;;;;;;;;;;;
2020/03/05 11:10:35;;;;;;;2.6;2.2;;;;;;;;;;;;;
2020/03/05 11:13:00;;;;;;;2.8;2.1;;;;;;;;;;;;;
2020/03/05 11:15:25;;;;;;;3;2.2;;;;;;;;;;;;;
2020/03/05 11:17:50;;;;;;;2.9;2.2;;;;;;;;;;;;;
2020/03/05 11:20:16;;;;;;;2.5;2.3;;;;;;;;;;;;;
2020/03/05 11:22:41;;;;;;;3.2;2.5;;;;;;;;;;;;;
2020/03/05 11:25:06;;;;;;;3.5;2.6;;;;;;;;;;;;;
2020/03/05 11:27:31;;;;;;;3.6;2.8;;;;;;;;;;;;;
2020/03/05 11:29:56;;;;;;;4.2;2.9;;;;;;;;;;;;;
2020/03/05 11:32:21;;;;;;;3.2;2.6;;;;;;;;;;;;;
2020/03/05 11:34:46;;;;;;;3.9;2.7;;;;;;;;;;;;;
2020/03/05 11:37:11;;;;;;;2.9;2.3;;;;;;;;;;;;;
2020/03/05 11:39:36;;;;;;;3.3;2.6;;;;;;;;;;;;;
2020/03/05 11:42:02;;;;;;;2.8;2.4;;;;;;;;;;;;;
2020/03/05 11:44:27;;;;;;;4.2;3;;;;;;;;;;;;;
2020/03/05 11:46:52;;;;;;;4.9;3.1;;;;;;;;;;;;;
2020/03/05 11:49:17;;;;;;;5.1;3.4;;;;;;;;;;;;;
2020/03/05 11:51:42;;;;;;;5.2;3.8;;;;;;;;;;;;;
2020/03/05 11:54:08;;;;;;;6;4.4;;;;;;;;;;;;;
2020/03/05 11:56:34;;;;;;;4.1;3.7;;;;;;;;;;;;;
2020/03/05 11:58:58;;;;;;;4.3;3.9;;;;;;;;;;;;;
2020/03/05 12:01:23;;;;;;;4.6;3.8;;;;;;;;;;;;;
2020/03/05 12:03:48;;;;;;;4.6;3.7;;;;;;;;;;;;;
2020/03/05 12:06:13;;;;;;;4.4;3.5;;;;;;;;;;;;;
2020/03/05 12:08:38;;;;;;;4.3;3.7;;;;;;;;;;;;;
2020/03/05 12:11:04;;;;;;;4.8;3.6;;;;;;;;;;;;;
2020/03/05 12:13:28;;;;;;;4.1;3;;;;;;;;;;;;;
2020/03/05 12:15:54;;;;;;;3.8;3.1;;;;;;;;;;;;;
2020/03/05 12:18:18;;;;;;;5.4;3.7;;;;;;;;;;;;;
2020/03/05 12:20:43;;;;;;;3.9;3.2;;;;;;;;;;;;;
2020/03/05 12:23:09;;;;;;;5.5;3.5;;;;;;;;;;;;;
2020/03/05 12:25:34;;;;;;;4.1;3.3;;;;;;;;;;;;;
2020/03/05 12:27:59;;;;;;;3.9;2.8;;;;;;;;;;;;;
2020/03/05 12:30:24;;;;;;;3.3;2.7;;;;;;;;;;;;;
2020/03/05 12:32:49;;;;;;;2.6;2.2;;;;;;;;;;;;;
2020/03/05 12:35:14;;;;;;;2.6;1.9;;;;;;;;;;;;;
2020/03/05 12:37:39;;;;;;;2.1;1.8;;;;;;;;;;;;;
2020/03/05 12:40:04;;;;;;;1.5;1.3;;;;;;;;;;;;;
2020/03/05 12:42:29;;;;;;;2.2;1.4;;;;;;;;;;;;;
2020/03/05 12:44:55;;;;;;;2.6;1.2;;;;;;;;;;;;;
2020/03/05 12:47:20;;;;;;;1.3;1.1;;;;;;;;;;;;;
2020/03/05 12:49:45;;;;;;;2.4;1.4;;;;;;;;;;;;;
2020/03/05 12:52:10;;;;;;;2.5;1.2;;;;;;;;;;;;;
2020/03/05 12:54:35;;;;;;;1.3;1;;;;;;;;;;;;;
2020/03/05 12:57:00;;;;;;;1.3;1.1;;;;;;;;;;;;;
2020/03/05 12:59:25;;;;;;;1.1;0.8;;;;;;;;;;;;;
2020/03/05 13:01:50;;;;;;;1.5;0.8;;;;;;;;;;;;;
2020/03/05 13:04:15;;;;;;;1.3;1;;;;;;;;;;;;;
2020/03/05 13:06:40;;;;;;;1.3;1;;;;;;;;;;;;;
2020/03/05 13:09:05;;;;;;;1.3;0.9;;;;;;;;;;;;;
2020/03/05 13:11:30;;;;;;;1.1;0.9;;;;;;;;;;;;;
2020/03/05 13:13:55;;;;;;;1.6;1;;;;;;;;;;;;;
2020/03/05 13:16:20;;;;;;;1.2;0.9;;;;;;;;;;;;;
2020/03/05 13:18:46;;;;;;;1.6;0.9;;;;;;;;;;;;;
2020/03/05 13:21:11;;;;;;;1.3;1;;;;;;;;;;;;;
2020/03/05 13:23:36;;;;;;;1.2;1.1;;;;;;;;;;;;;
2020/03/05 13:26:01;;;;;;;1.3;0.9;;;;;;;;;;;;;
2020/03/05 13:28:26;;;;;;;1.2;0.9;;;;;;;;;;;;;
2020/03/05 13:30:51;;;;;;;1.1;0.9;;;;;;;;;;;;;
2020/03/05 13:33:16;;;;;;;1.1;1;;;;;;;;;;;;;
2020/03/05 13:35:41;;;;;;;2.6;1;;;;;;;;;;;;;
2020/03/05 13:38:06;;;;;;;1.7;0.8;;;;;;;;;;;;;
2020/03/05 13:40:31;;;;;;;2;1.2;;;;;;;;;;;;;
2020/03/05 13:42:56;;;;;;;2.7;1.7;;;;;;;;;;;;;
2020/03/05 13:45:22;;;;;;;1.1;0.8;;;;;;;;;;;;;
2020/03/05 13:47:47;;;;;;;0.8;0.8;;;;;;;;;;;;;
2020/03/05 13:50:12;;;;;;;2.4;1;;;;;;;;;;;;;
2020/03/05 13:52:37;;;;;;;2.2;1.3;;;;;;;;;;;;;
2020/03/05 13:55:02;;;;;;;1.8;1.1;;;;;;;;;;;;;
2020/03/05 13:57:27;;;;;;;2.1;0.9;;;;;;;;;;;;;
2020/03/05 13:59:52;;;;;;;1.2;0.9;;;;;;;;;;;;;
2020/03/05 14:02:17;;;;;;;1;0.9;;;;;;;;;;;;;
2020/03/05 14:04:43;;;;;;;1.3;1.1;;;;;;;;;;;;;
2020/03/05 14:07:08;;;;;;;1.3;0.9;;;;;;;;;;;;;
2020/03/05 14:09:33;;;;;;;1;0.8;;;;;;;;;;;;;
2020/03/05 14:12:01;;;;;;;2.8;1.1;;;;;;;;;;;;;
2020/03/05 14:14:26;;;;;;;1.8;1;;;;;;;;;;;;;
2020/03/05 14:16:51;;;;;;;1.2;1;;;;;;;;;;;;;
2020/03/05 14:19:16;;;;;;;1.6;1;;;;;;;;;;;;;
2020/03/05 14:21:41;;;;;;;2.8;1;;;;;;;;;;;;;
2020/03/05 14:24:06;;;;;;;1.3;1;;;;;;;;;;;;;
2020/03/05 14:26:31;;;;;;;1.2;1;;;;;;;;;;;;;
2020/03/05 14:28:57;;;;;;;1.3;1;;;;;;;;;;;;;
2020/03/05 14:31:22;;;;;;;1.7;1;;;;;;;;;;;;;
2020/03/05 14:33:47;;;;;;;1.6;1.2;;;;;;;;;;;;;
2020/03/05 14:36:12;;;;;;;2.1;1.3;;;;;;;;;;;;;
2020/03/05 14:38:37;;;;;;;2.3;1.2;;;;;;;;;;;;;
2020/03/05 14:41:02;;;;;;;2.3;1.4;;;;;;;;;;;;;
2020/03/05 14:43:28;;;;;;;2.2;1.7;;;;;;;;;;;;;
2020/03/05 14:45:53;;;;;;;1.7;1.2;;;;;;;;;;;;;
2020/03/05 14:48:17;;;;;;;2;1.1;;;;;;;;;;;;;
2020/03/05 14:50:43;;;;;;;1.6;1.1;;;;;;;;;;;;;
2020/03/05 14:53:08;;;;;;;2.2;1.1;;;;;;;;;;;;;
2020/03/05 14:55:33;;;;;;;2.8;2.2;;;;;;;;;;;;;
2020/03/05 14:57:58;;;;;;;1.9;1.2;;;;;;;;;;;;;
2020/03/05 15:00:23;;;;;;;1.6;1.1;;;;;;;;;;;;;
2020/03/05 15:02:48;;;;;;;1.5;1.2;;;;;;;;;;;;;
2020/03/05 15:05:13;;;;;;;2.1;1.2;;;;;;;;;;;;;
2020/03/05 15:07:38;;;;;;;1.5;1.1;;;;;;;;;;;;;
2020/03/05 15:10:03;;;;;;;2.4;1.5;;;;;;;;;;;;;
2020/03/05 15:12:29;;;;;;;1.2;1.1;;;;;;;;;;;;;
2020/03/05 15:14:53;;;;;;;3.1;2.3;;;;;;;;;;;;;
2020/03/05 15:17:19;;;;;;;1.4;1.2;;;;;;;;;;;;;
2020/03/05 15:19:44;;;;;;;1.9;1.1;;;;;;;;;;;;;
2020/03/05 15:22:09;;;;;;;1.6;1.1;;;;;;;;;;;;;
2020/03/05 15:24:34;;;;;;;1.8;1.2;;;;;;;;;;;;;
2020/03/05 15:26:59;;;;;;;1.5;1.2;;;;;;;;;;;;;
2020/03/05 15:29:24;;;;;;;2.2;1.5;;;;;;;;;;;;;
2020/03/05 15:31:49;;;;;;;1.9;1.3;;;;;;;;;;;;;
2020/03/05 15:34:14;;;;;;;2;1.3;;;;;;;;;;;;;
2020/03/05 15:36:39;;;;;;;2.4;1.5;;;;;;;;;;;;;
2020/03/05 15:39:04;;;;;;;1.5;1.1;;;;;;;;;;;;;
2020/03/05 15:41:30;;;;;;;2;1.6;;;;;;;;;;;;;
2020/03/05 15:43:55;;;;;;;1.6;1.4;;;;;;;;;;;;;
2020/03/05 15:46:21;;;;;;;2.1;1.5;;;;;;;;;;;;;
2020/03/05 15:48:45;;;;;;;2;1.4;;;;;;;;;;;;;
2020/03/05 15:51:10;;;;;;;1.9;1.5;;;;;;;;;;;;;
2020/03/05 15:53:35;;;;;;;2.6;1.2;;;;;;;;;;;;;
2020/03/05 15:56:00;;;;;;;2;1.6;;;;;;;;;;;;;
2020/03/05 15:58:25;;;;;;;1.8;1.3;;;;;;;;;;;;;
2020/03/05 16:00:50;;;;;;;2.8;1.4;;;;;;;;;;;;;
2020/03/05 16:03:15;;;;;;;2.1;1.2;;;;;;;;;;;;;
2020/03/05 16:05:41;;;;;;;2.3;1.4;;;;;;;;;;;;;
2020/03/05 16:08:06;;;;;;;2.5;1.2;;;;;;;;;;;;;
2020/03/05 16:10:31;;;;;;;2.4;1.4;;;;;;;;;;;;;
2020/03/05 16:12:56;;;;;;;3.5;1.6;;;;;;;;;;;;;
2020/03/05 16:15:21;;;;;;;3.5;1.6;;;;;;;;;;;;;
2020/03/05 16:17:46;;;;;;;3.5;2.2;;;;;;;;;;;;;
2020/03/05 16:20:11;;;;;;;2.7;1.7;;;;;;;;;;;;;
2020/03/05 16:22:37;;;;;;;2.5;1.8;;;;;;;;;;;;;